sensor_id;sensor_type;location;lat;lon;timestamp;P1;durP1;ratioP1;P2;durP2;ratioP2
35646;SDS011;28680;45.642;13.756;2024-02-21T00:05:57;4.72;;;1.77;;
35646;SDS011;28680;45.642;13.756;2024-02-21T00:08:23;2.55;;;1.48;;
35646;SDS011;28680;45.642;13.756;2024-02-21T00:10:49;4.35;;;1.80;;
35646;SDS011;28680;45.642;13.756;2024-02-21T00:13:14;3.63;;;1.80;;
35646;SDS011;28680;45.642;13.756;2024-02-21T00:15:40;2.42;;;1.77;;
35646;SDS011;28680;45.642;13.756;2024-02-21T00:18:06;2.10;;;1.60;;
35646;SDS011;28680;45.642;13.756;2024-02-21T00:20:32;3.30;;;2.03;;
35646;SDS011;28680;45.642;13.756;2024-02-21T00:22:57;2.95;;;2.00;;
35646;SDS011;28680;45.642;13.756;2024-02-21T00:25:23;1.85;;;1.63;;
35646;SDS011;28680;45.642;13.756;2024-02-21T00:27:49;3.20;;;1.98;;
35646;SDS011;28680;45.642;13.756;2024-02-21T00:30:15;4.47;;;2.35;;
35646;SDS011;28680;45.642;13.756;2024-02-21T00:32:41;5.72;;;2.58;;
35646;SDS011;28680;45.642;13.756;2024-02-21T00:35:07;3.42;;;2.40;;
35646;SDS011;28680;45.642;13.756;2024-02-21T00:37:33;6.88;;;2.88;;
35646;SDS011;28680;45.642;13.756;2024-02-21T00:39:59;4.10;;;2.58;;
35646;SDS011;28680;45.642;13.756;2024-02-21T00:42:24;4.85;;;2.70;;
35646;SDS011;28680;45.642;13.756;2024-02-21T00:44:50;6.13;;;2.60;;
35646;SDS011;28680;45.642;13.756;2024-02-21T00:47:16;5.55;;;2.92;;
35646;SDS011;28680;45.642;13.756;2024-02-21T00:49:42;4.22;;;2.47;;
35646;SDS011;28680;45.642;13.756;2024-02-21T00:52:07;5.50;;;2.85;;
35646;SDS011;28680;45.642;13.756;2024-02-21T00:54:33;6.68;;;2.88;;
35646;SDS011;28680;45.642;13.756;2024-02-21T00:56:59;3.75;;;2.60;;
35646;SDS011;28680;45.642;13.756;2024-02-21T00:59:25;4.28;;;2.58;;
35646;SDS011;28680;45.642;13.756;2024-02-21T01:01:51;4.32;;;2.40;;
35646;SDS011;28680;45.642;13.756;2024-02-21T01:04:16;5.68;;;2.72;;
35646;SDS011;28680;45.642;13.756;2024-02-21T01:06:46;4.68;;;2.97;;
35646;SDS011;28680;45.642;13.756;2024-02-21T01:09:12;4.53;;;2.47;;
35646;SDS011;28680;45.642;13.756;2024-02-21T01:11:38;6.32;;;2.60;;
35646;SDS011;28680;45.642;13.756;2024-02-21T01:14:03;5.28;;;2.40;;
35646;SDS011;28680;45.642;13.756;2024-02-21T01:16:29;5.00;;;2.67;;
35646;SDS011;28680;45.642;13.756;2024-02-21T01:18:55;4.82;;;2.60;;
35646;SDS011;28680;45.642;13.756;2024-02-21T01:21:21;5.07;;;2.58;;
35646;SDS011;28680;45.642;13.756;2024-02-21T01:23:46;3.75;;;2.08;;
35646;SDS011;28680;45.642;13.756;2024-02-21T01:26:15;5.80;;;2.80;;
35646;SDS011;28680;45.642;13.756;2024-02-21T01:28:41;6.53;;;2.90;;
35646;SDS011;28680;45.642;13.756;2024-02-21T01:31:07;2.65;;;2.03;;
35646;SDS011;28680;45.642;13.756;2024-02-21T01:33:33;4.68;;;2.53;;
35646;SDS011;28680;45.642;13.756;2024-02-21T01:36:04;4.30;;;2.25;;
35646;SDS011;28680;45.642;13.756;2024-02-21T01:38:33;4.25;;;2.40;;
35646;SDS011;28680;45.642;13.756;2024-02-21T01:40:59;3.53;;;2.38;;
35646;SDS011;28680;45.642;13.756;2024-02-21T01:43:24;3.58;;;2.05;;
35646;SDS011;28680;45.642;13.756;2024-02-21T01:45:52;4.25;;;2.60;;
35646;SDS011;28680;45.642;13.756;2024-02-21T01:48:20;5.32;;;2.60;;
35646;SDS011;28680;45.642;13.756;2024-02-21T01:50:47;4.25;;;2.20;;
35646;SDS011;28680;45.642;13.756;2024-02-21T01:53:15;4.53;;;1.83;;
35646;SDS011;28680;45.642;13.756;2024-02-21T01:55:46;2.80;;;1.90;;
35646;SDS011;28680;45.642;13.756;2024-02-21T01:58:16;4.95;;;1.92;;
35646;SDS011;28680;45.642;13.756;2024-02-21T02:00:43;5.30;;;1.80;;
35646;SDS011;28680;45.642;13.756;2024-02-21T02:03:10;2.95;;;1.70;;
35646;SDS011;28680;45.642;13.756;2024-02-21T02:05:46;3.08;;;1.73;;
35646;SDS011;28680;45.642;13.756;2024-02-21T02:08:17;2.38;;;1.55;;
35646;SDS011;28680;45.642;13.756;2024-02-21T02:10:44;3.13;;;2.05;;
35646;SDS011;28680;45.642;13.756;2024-02-21T02:13:28;3.30;;;1.77;;
35646;SDS011;28680;45.642;13.756;2024-02-21T02:15:54;4.25;;;1.65;;
35646;SDS011;28680;45.642;13.756;2024-02-21T02:18:20;3.17;;;1.90;;
35646;SDS011;28680;45.642;13.756;2024-02-21T02:20:46;3.70;;;1.55;;
35646;SDS011;28680;45.642;13.756;2024-02-21T02:23:20;3.05;;;1.90;;
35646;SDS011;28680;45.642;13.756;2024-02-21T02:25:46;6.63;;;1.63;;
35646;SDS011;28680;45.642;13.756;2024-02-21T02:28:22;3.25;;;2.00;;
35646;SDS011;28680;45.642;13.756;2024-02-21T02:30:48;2.67;;;1.80;;
35646;SDS011;28680;45.642;13.756;2024-02-21T02:33:14;2.17;;;1.40;;
35646;SDS011;28680;45.642;13.756;2024-02-21T02:35:42;2.15;;;1.50;;
35646;SDS011;28680;45.642;13.756;2024-02-21T02:38:08;2.67;;;1.50;;
35646;SDS011;28680;45.642;13.756;2024-02-21T02:40:35;2.13;;;1.38;;
35646;SDS011;28680;45.642;13.756;2024-02-21T02:43:03;3.20;;;1.55;;
35646;SDS011;28680;45.642;13.756;2024-02-21T02:45:29;2.67;;;1.30;;
35646;SDS011;28680;45.642;13.756;2024-02-21T02:47:55;2.33;;;1.38;;
35646;SDS011;28680;45.642;13.756;2024-02-21T02:50:24;3.05;;;1.42;;
35646;SDS011;28680;45.642;13.756;2024-02-21T02:52:51;4.57;;;1.50;;
35646;SDS011;28680;45.642;13.756;2024-02-21T02:55:19;2.20;;;1.50;;
35646;SDS011;28680;45.642;13.756;2024-02-21T02:57:45;2.53;;;1.30;;
35646;SDS011;28680;45.642;13.756;2024-02-21T03:00:16;2.60;;;1.40;;
35646;SDS011;28680;45.642;13.756;2024-02-21T03:02:55;2.40;;;1.42;;
35646;SDS011;28680;45.642;13.756;2024-02-21T03:05:21;2.92;;;1.58;;
35646;SDS011;28680;45.642;13.756;2024-02-21T03:07:47;2.05;;;1.35;;
35646;SDS011;28680;45.642;13.756;2024-02-21T03:10:17;4.47;;;1.70;;
35646;SDS011;28680;45.642;13.756;2024-02-21T03:12:42;2.28;;;1.50;;
35646;SDS011;28680;45.642;13.756;2024-02-21T03:15:09;3.20;;;1.58;;
35646;SDS011;28680;45.642;13.756;2024-02-21T03:17:35;2.92;;;1.50;;
35646;SDS011;28680;45.642;13.756;2024-02-21T03:20:01;2.53;;;1.38;;
35646;SDS011;28680;45.642;13.756;2024-02-21T03:22:39;2.80;;;1.55;;
35646;SDS011;28680;45.642;13.756;2024-02-21T03:25:08;2.40;;;1.42;;
35646;SDS011;28680;45.642;13.756;2024-02-21T03:27:35;1.88;;;1.30;;
35646;SDS011;28680;45.642;13.756;2024-02-21T03:30:01;3.53;;;1.65;;
35646;SDS011;28680;45.642;13.756;2024-02-21T03:32:27;2.47;;;1.55;;
35646;SDS011;28680;45.642;13.756;2024-02-21T03:34:54;3.63;;;1.48;;
35646;SDS011;28680;45.642;13.756;2024-02-21T03:37:20;7.32;;;1.88;;
35646;SDS011;28680;45.642;13.756;2024-02-21T03:39:49;2.88;;;1.45;;
35646;SDS011;28680;45.642;13.756;2024-02-21T03:42:14;2.83;;;1.77;;
35646;SDS011;28680;45.642;13.756;2024-02-21T03:44:40;2.17;;;1.30;;
35646;SDS011;28680;45.642;13.756;2024-02-21T03:47:06;2.05;;;1.48;;
35646;SDS011;28680;45.642;13.756;2024-02-21T03:49:35;3.72;;;1.67;;
35646;SDS011;28680;45.642;13.756;2024-02-21T03:52:01;2.03;;;1.40;;
35646;SDS011;28680;45.642;13.756;2024-02-21T03:54:27;3.78;;;1.73;;
35646;SDS011;28680;45.642;13.756;2024-02-21T03:56:52;3.00;;;1.80;;
35646;SDS011;28680;45.642;13.756;2024-02-21T03:59:18;4.07;;;1.63;;
35646;SDS011;28680;45.642;13.756;2024-02-21T04:01:44;2.58;;;1.45;;
35646;SDS011;28680;45.642;13.756;2024-02-21T04:04:10;2.47;;;1.63;;
35646;SDS011;28680;45.642;13.756;2024-02-21T04:06:36;2.67;;;1.38;;
35646;SDS011;28680;45.642;13.756;2024-02-21T04:09:01;3.63;;;1.42;;
35646;SDS011;28680;45.642;13.756;2024-02-21T04:11:27;2.95;;;1.50;;
35646;SDS011;28680;45.642;13.756;2024-02-21T04:13:53;3.38;;;1.58;;
35646;SDS011;28680;45.642;13.756;2024-02-21T04:16:19;3.78;;;2.05;;
35646;SDS011;28680;45.642;13.756;2024-02-21T04:18:45;2.63;;;1.80;;
35646;SDS011;28680;45.642;13.756;2024-02-21T04:21:14;4.32;;;1.50;;
35646;SDS011;28680;45.642;13.756;2024-02-21T04:23:41;2.63;;;1.67;;
35646;SDS011;28680;45.642;13.756;2024-02-21T04:26:06;3.42;;;1.65;;
35646;SDS011;28680;45.642;13.756;2024-02-21T04:28:32;3.90;;;1.98;;
35646;SDS011;28680;45.642;13.756;2024-02-21T04:30:58;2.33;;;1.70;;
35646;SDS011;28680;45.642;13.756;2024-02-21T04:33:24;3.33;;;1.80;;
35646;SDS011;28680;45.642;13.756;2024-02-21T04:35:50;3.40;;;1.52;;
35646;SDS011;28680;45.642;13.756;2024-02-21T04:38:17;2.80;;;1.88;;
35646;SDS011;28680;45.642;13.756;2024-02-21T04:40:42;3.22;;;1.80;;
35646;SDS011;28680;45.642;13.756;2024-02-21T04:43:08;5.05;;;1.80;;
35646;SDS011;28680;45.642;13.756;2024-02-21T04:45:34;3.08;;;1.80;;
35646;SDS011;28680;45.642;13.756;2024-02-21T04:48:00;2.40;;;1.70;;
35646;SDS011;28680;45.642;13.756;2024-02-21T04:50:25;2.80;;;1.75;;
35646;SDS011;28680;45.642;13.756;2024-02-21T04:53:10;2.95;;;1.90;;
35646;SDS011;28680;45.642;13.756;2024-02-21T04:58:15;3.47;;;2.00;;
35646;SDS011;28680;45.642;13.756;2024-02-21T05:00:41;4.25;;;1.67;;
35646;SDS011;28680;45.642;13.756;2024-02-21T05:03:06;2.85;;;1.73;;
35646;SDS011;28680;45.642;13.756;2024-02-21T05:05:32;2.83;;;1.90;;
35646;SDS011;28680;45.642;13.756;2024-02-21T05:07:58;3.88;;;2.10;;
35646;SDS011;28680;45.642;13.756;2024-02-21T05:10:24;4.00;;;2.00;;
35646;SDS011;28680;45.642;13.756;2024-02-21T05:12:50;4.25;;;2.28;;
35646;SDS011;28680;45.642;13.756;2024-02-21T05:15:15;2.47;;;1.65;;
35646;SDS011;28680;45.642;13.756;2024-02-21T05:17:41;2.92;;;1.75;;
35646;SDS011;28680;45.642;13.756;2024-02-21T05:20:08;3.88;;;2.03;;
35646;SDS011;28680;45.642;13.756;2024-02-21T05:22:34;4.22;;;2.10;;
35646;SDS011;28680;45.642;13.756;2024-02-21T05:25:00;3.67;;;1.90;;
35646;SDS011;28680;45.642;13.756;2024-02-21T05:27:26;4.47;;;2.00;;
35646;SDS011;28680;45.642;13.756;2024-02-21T05:29:53;4.75;;;2.35;;
35646;SDS011;28680;45.642;13.756;2024-02-21T05:32:19;3.20;;;1.80;;
35646;SDS011;28680;45.642;13.756;2024-02-21T05:34:48;2.88;;;1.85;;
35646;SDS011;28680;45.642;13.756;2024-02-21T05:37:20;4.38;;;1.80;;
35646;SDS011;28680;45.642;13.756;2024-02-21T05:39:46;4.15;;;1.83;;
35646;SDS011;28680;45.642;13.756;2024-02-21T05:42:12;3.55;;;1.85;;
35646;SDS011;28680;45.642;13.756;2024-02-21T05:44:38;4.65;;;2.10;;
35646;SDS011;28680;45.642;13.756;2024-02-21T05:47:07;4.75;;;2.40;;
35646;SDS011;28680;45.642;13.756;2024-02-21T05:49:37;4.32;;;2.00;;
35646;SDS011;28680;45.642;13.756;2024-02-21T05:52:03;4.15;;;2.40;;
35646;SDS011;28680;45.642;13.756;2024-02-21T05:54:31;7.70;;;2.65;;
35646;SDS011;28680;45.642;13.756;2024-02-21T05:56:57;4.03;;;2.30;;
35646;SDS011;28680;45.642;13.756;2024-02-21T05:59:23;3.92;;;2.00;;
35646;SDS011;28680;45.642;13.756;2024-02-21T06:01:57;4.47;;;2.10;;
35646;SDS011;28680;45.642;13.756;2024-02-21T06:04:23;7.18;;;2.22;;
35646;SDS011;28680;45.642;13.756;2024-02-21T06:06:49;5.32;;;2.30;;
35646;SDS011;28680;45.642;13.756;2024-02-21T06:09:15;3.67;;;2.47;;
35646;SDS011;28680;45.642;13.756;2024-02-21T06:11:40;3.83;;;2.10;;
35646;SDS011;28680;45.642;13.756;2024-02-21T06:14:06;3.92;;;2.22;;
35646;SDS011;28680;45.642;13.756;2024-02-21T06:16:32;5.32;;;2.38;;
35646;SDS011;28680;45.642;13.756;2024-02-21T06:18:58;3.90;;;2.35;;
35646;SDS011;28680;45.642;13.756;2024-02-21T06:21:27;6.05;;;2.15;;
35646;SDS011;28680;45.642;13.756;2024-02-21T06:23:54;4.43;;;2.33;;
35646;SDS011;28680;45.642;13.756;2024-02-21T06:26:20;7.90;;;2.58;;
35646;SDS011;28680;45.642;13.756;2024-02-21T06:28:46;7.60;;;4.10;;
35646;SDS011;28680;45.642;13.756;2024-02-21T06:31:12;6.28;;;3.30;;
35646;SDS011;28680;45.642;13.756;2024-02-21T06:33:38;5.72;;;2.80;;
35646;SDS011;28680;45.642;13.756;2024-02-21T06:36:04;6.15;;;2.58;;
35646;SDS011;28680;45.642;13.756;2024-02-21T06:38:30;6.93;;;2.67;;
35646;SDS011;28680;45.642;13.756;2024-02-21T06:40:55;7.10;;;2.70;;
35646;SDS011;28680;45.642;13.756;2024-02-21T06:43:21;9.77;;;3.13;;
35646;SDS011;28680;45.642;13.756;2024-02-21T06:45:47;9.10;;;3.33;;
35646;SDS011;28680;45.642;13.756;2024-02-21T06:48:16;7.68;;;2.90;;
35646;SDS011;28680;45.642;13.756;2024-02-21T06:50:42;9.32;;;3.38;;
35646;SDS011;28680;45.642;13.756;2024-02-21T06:53:08;6.35;;;2.92;;
35646;SDS011;28680;45.642;13.756;2024-02-21T06:55:33;6.65;;;2.75;;
35646;SDS011;28680;45.642;13.756;2024-02-21T06:58:00;7.47;;;2.78;;
35646;SDS011;28680;45.642;13.756;2024-02-21T07:00:28;6.30;;;2.88;;
35646;SDS011;28680;45.642;13.756;2024-02-21T07:02:54;5.70;;;2.80;;
35646;SDS011;28680;45.642;13.756;2024-02-21T07:05:20;7.72;;;4.07;;
35646;SDS011;28680;45.642;13.756;2024-02-21T07:07:46;5.70;;;2.97;;
35646;SDS011;28680;45.642;13.756;2024-02-21T07:10:12;9.80;;;3.33;;
35646;SDS011;28680;45.642;13.756;2024-02-21T07:12:37;6.25;;;3.05;;
35646;SDS011;28680;45.642;13.756;2024-02-21T07:15:07;6.10;;;2.97;;
35646;SDS011;28680;45.642;13.756;2024-02-21T07:17:33;9.05;;;3.80;;
35646;SDS011;28680;45.642;13.756;2024-02-21T07:19:58;16.17;;;5.50;;
35646;SDS011;28680;45.642;13.756;2024-02-21T07:22:25;16.27;;;5.63;;
35646;SDS011;28680;45.642;13.756;2024-02-21T07:24:50;11.65;;;3.58;;
35646;SDS011;28680;45.642;13.756;2024-02-21T07:27:16;10.90;;;3.45;;
35646;SDS011;28680;45.642;13.756;2024-02-21T07:29:42;11.25;;;4.72;;
35646;SDS011;28680;45.642;13.756;2024-02-21T07:32:12;6.30;;;3.42;;
35646;SDS011;28680;45.642;13.756;2024-02-21T07:34:38;7.43;;;3.53;;
35646;SDS011;28680;45.642;13.756;2024-02-21T07:37:04;6.43;;;3.47;;
35646;SDS011;28680;45.642;13.756;2024-02-21T07:39:29;13.50;;;3.97;;
35646;SDS011;28680;45.642;13.756;2024-02-21T07:41:55;5.45;;;2.85;;
35646;SDS011;28680;45.642;13.756;2024-02-21T07:44:21;4.18;;;2.60;;
35646;SDS011;28680;45.642;13.756;2024-02-21T07:46:47;5.28;;;2.30;;
35646;SDS011;28680;45.642;13.756;2024-02-21T07:49:12;5.72;;;3.00;;
35646;SDS011;28680;45.642;13.756;2024-02-21T07:51:38;4.22;;;2.70;;
35646;SDS011;28680;45.642;13.756;2024-02-21T07:54:04;7.20;;;3.20;;
35646;SDS011;28680;45.642;13.756;2024-02-21T07:56:30;9.05;;;3.00;;
35646;SDS011;28680;45.642;13.756;2024-02-21T07:58:56;7.05;;;2.72;;
35646;SDS011;28680;45.642;13.756;2024-02-21T08:01:22;7.13;;;3.13;;
35646;SDS011;28680;45.642;13.756;2024-02-21T08:03:47;4.78;;;2.42;;
35646;SDS011;28680;45.642;13.756;2024-02-21T08:06:13;6.75;;;3.17;;
35646;SDS011;28680;45.642;13.756;2024-02-21T08:08:39;7.30;;;3.00;;
35646;SDS011;28680;45.642;13.756;2024-02-21T08:11:05;4.57;;;2.80;;
35646;SDS011;28680;45.642;13.756;2024-02-21T08:13:31;8.27;;;2.45;;
35646;SDS011;28680;45.642;13.756;2024-02-21T08:15:57;4.72;;;2.33;;
35646;SDS011;28680;45.642;13.756;2024-02-21T08:18:23;5.45;;;2.40;;
35646;SDS011;28680;45.642;13.756;2024-02-21T08:20:48;6.43;;;2.92;;
35646;SDS011;28680;45.642;13.756;2024-02-21T08:23:18;6.78;;;3.55;;
35646;SDS011;28680;45.642;13.756;2024-02-21T08:25:44;5.18;;;2.78;;
35646;SDS011;28680;45.642;13.756;2024-02-21T08:28:10;8.18;;;3.20;;
35646;SDS011;28680;45.642;13.756;2024-02-21T08:30:38;9.02;;;4.30;;
35646;SDS011;28680;45.642;13.756;2024-02-21T08:33:03;4.28;;;2.83;;
35646;SDS011;28680;45.642;13.756;2024-02-21T08:35:29;13.38;;;3.90;;
35646;SDS011;28680;45.642;13.756;2024-02-21T08:37:55;8.73;;;3.85;;
35646;SDS011;28680;45.642;13.756;2024-02-21T08:40:21;9.32;;;4.05;;
35646;SDS011;28680;45.642;13.756;2024-02-21T08:42:47;6.65;;;3.55;;
35646;SDS011;28680;45.642;13.756;2024-02-21T08:45:14;9.73;;;4.40;;
35646;SDS011;28680;45.642;13.756;2024-02-21T08:47:40;8.07;;;4.28;;
35646;SDS011;28680;45.642;13.756;2024-02-21T08:50:06;9.73;;;4.30;;
35646;SDS011;28680;45.642;13.756;2024-02-21T08:52:32;5.93;;;2.90;;
35646;SDS011;28680;45.642;13.756;2024-02-21T08:54:58;3.85;;;2.25;;
35646;SDS011;28680;45.642;13.756;2024-02-21T08:57:24;5.57;;;3.10;;
35646;SDS011;28680;45.642;13.756;2024-02-21T08:59:50;5.20;;;2.53;;
35646;SDS011;28680;45.642;13.756;2024-02-21T09:02:16;13.40;;;4.25;;
35646;SDS011;28680;45.642;13.756;2024-02-21T09:04:42;4.10;;;2.63;;
35646;SDS011;28680;45.642;13.756;2024-02-21T09:07:09;7.72;;;2.95;;
35646;SDS011;28680;45.642;13.756;2024-02-21T09:09:35;5.63;;;2.90;;
35646;SDS011;28680;45.642;13.756;2024-02-21T09:12:04;5.60;;;2.58;;
35646;SDS011;28680;45.642;13.756;2024-02-21T09:14:32;3.97;;;2.20;;
35646;SDS011;28680;45.642;13.756;2024-02-21T09:16:58;6.65;;;4.10;;
35646;SDS011;28680;45.642;13.756;2024-02-21T09:19:24;10.02;;;3.50;;
35646;SDS011;28680;45.642;13.756;2024-02-21T09:21:50;5.72;;;3.50;;
35646;SDS011;28680;45.642;13.756;2024-02-21T09:24:18;5.32;;;3.28;;
35646;SDS011;28680;45.642;13.756;2024-02-21T09:26:47;5.88;;;3.20;;
35646;SDS011;28680;45.642;13.756;2024-02-21T09:29:13;7.15;;;3.40;;
35646;SDS011;28680;45.642;13.756;2024-02-21T09:31:41;8.05;;;2.90;;
35646;SDS011;28680;45.642;13.756;2024-02-21T09:34:12;5.05;;;2.95;;
35646;SDS011;28680;45.642;13.756;2024-02-21T09:36:37;6.63;;;3.00;;
35646;SDS011;28680;45.642;13.756;2024-02-21T09:39:06;4.55;;;2.80;;
35646;SDS011;28680;45.642;13.756;2024-02-21T09:41:32;6.20;;;3.30;;
35646;SDS011;28680;45.642;13.756;2024-02-21T09:44:05;7.00;;;3.00;;
35646;SDS011;28680;45.642;13.756;2024-02-21T09:52:02;5.47;;;3.00;;
35646;SDS011;28680;45.642;13.756;2024-02-21T09:54:30;6.20;;;3.30;;
35646;SDS011;28680;45.642;13.756;2024-02-21T09:57:02;4.13;;;2.47;;
35646;SDS011;28680;45.642;13.756;2024-02-21T09:59:43;4.47;;;2.88;;
35646;SDS011;28680;45.642;13.756;2024-02-21T10:02:10;6.45;;;2.85;;
35646;SDS011;28680;45.642;13.756;2024-02-21T10:05:05;8.00;;;2.58;;
35646;SDS011;28680;45.642;13.756;2024-02-21T10:07:36;5.22;;;2.60;;
35646;SDS011;28680;45.642;13.756;2024-02-21T10:10:27;4.95;;;2.40;;
35646;SDS011;28680;45.642;13.756;2024-02-21T10:12:55;7.85;;;3.47;;
35646;SDS011;28680;45.642;13.756;2024-02-21T10:15:21;4.75;;;2.90;;
35646;SDS011;28680;45.642;13.756;2024-02-21T10:18:18;5.80;;;2.80;;
35646;SDS011;28680;45.642;13.756;2024-02-21T10:20:47;5.35;;;2.60;;
35646;SDS011;28680;45.642;13.756;2024-02-21T10:23:46;7.93;;;2.72;;
35646;SDS011;28680;45.642;13.756;2024-02-21T10:26:18;5.93;;;2.50;;
35646;SDS011;28680;45.642;13.756;2024-02-21T10:28:50;8.60;;;3.65;;
35646;SDS011;28680;45.642;13.756;2024-02-21T10:31:32;4.97;;;2.72;;
35646;SDS011;28680;45.642;13.756;2024-02-21T10:34:23;4.38;;;2.38;;
35646;SDS011;28680;45.642;13.756;2024-02-21T10:37:08;4.20;;;2.40;;
35646;SDS011;28680;45.642;13.756;2024-02-21T10:39:36;4.65;;;2.70;;
35646;SDS011;28680;45.642;13.756;2024-02-21T10:42:04;8.65;;;2.45;;
35646;SDS011;28680;45.642;13.756;2024-02-21T10:44:31;5.57;;;2.70;;
35646;SDS011;28680;45.642;13.756;2024-02-21T10:47:00;6.13;;;2.97;;
35646;SDS011;28680;45.642;13.756;2024-02-21T10:49:38;6.10;;;2.72;;
35646;SDS011;28680;45.642;13.756;2024-02-21T10:52:12;4.70;;;2.53;;
35646;SDS011;28680;45.642;13.756;2024-02-21T10:55:03;5.90;;;2.35;;
35646;SDS011;28680;45.642;13.756;2024-02-21T10:57:28;6.82;;;2.53;;
35646;SDS011;28680;45.642;13.756;2024-02-21T10:59:56;3.45;;;2.33;;
35646;SDS011;28680;45.642;13.756;2024-02-21T11:02:24;4.03;;;2.50;;
35646;SDS011;28680;45.642;13.756;2024-02-21T11:04:51;5.15;;;2.35;;
35646;SDS011;28680;45.642;13.756;2024-02-21T11:07:20;5.85;;;2.50;;
35646;SDS011;28680;45.642;13.756;2024-02-21T11:09:52;4.45;;;2.30;;
35646;SDS011;28680;45.642;13.756;2024-02-21T11:14:46;4.60;;;2.25;;
35646;SDS011;28680;45.642;13.756;2024-02-21T11:17:19;5.75;;;2.22;;
35646;SDS011;28680;45.642;13.756;2024-02-21T11:19:51;5.07;;;2.80;;
35646;SDS011;28680;45.642;13.756;2024-02-21T11:22:18;6.75;;;2.30;;
35646;SDS011;28680;45.642;13.756;2024-02-21T11:24:47;4.70;;;2.45;;
35646;SDS011;28680;45.642;13.756;2024-02-21T11:27:19;8.18;;;2.10;;
35646;SDS011;28680;45.642;13.756;2024-02-21T11:29:47;3.03;;;2.20;;
35646;SDS011;28680;45.642;13.756;2024-02-21T11:32:20;5.38;;;2.42;;
35646;SDS011;28680;45.642;13.756;2024-02-21T11:35:00;2.88;;;1.95;;
35646;SDS011;28680;45.642;13.756;2024-02-21T11:37:30;6.10;;;2.28;;
35646;SDS011;28680;45.642;13.756;2024-02-21T11:39:59;6.18;;;2.20;;
35646;SDS011;28680;45.642;13.756;2024-02-21T11:42:25;3.53;;;2.00;;
35646;SDS011;28680;45.642;13.756;2024-02-21T11:44:52;3.58;;;2.08;;
35646;SDS011;28680;45.642;13.756;2024-02-21T11:47:22;2.30;;;1.80;;
35646;SDS011;28680;45.642;13.756;2024-02-21T11:49:48;4.32;;;2.20;;
35646;SDS011;28680;45.642;13.756;2024-02-21T11:52:19;4.90;;;2.30;;
35646;SDS011;28680;45.642;13.756;2024-02-21T11:54:47;3.20;;;1.95;;
35646;SDS011;28680;45.642;13.756;2024-02-21T11:57:13;3.83;;;1.90;;
35646;SDS011;28680;45.642;13.756;2024-02-21T11:59:43;3.15;;;2.10;;
35646;SDS011;28680;45.642;13.756;2024-02-21T12:02:11;5.30;;;1.98;;
35646;SDS011;28680;45.642;13.756;2024-02-21T12:04:37;3.53;;;2.33;;
35646;SDS011;28680;45.642;13.756;2024-02-21T12:07:03;2.83;;;2.03;;
35646;SDS011;28680;45.642;13.756;2024-02-21T12:09:29;3.45;;;1.95;;
35646;SDS011;28680;45.642;13.756;2024-02-21T12:14:25;3.63;;;1.90;;
35646;SDS011;28680;45.642;13.756;2024-02-21T12:16:53;6.93;;;2.25;;
35646;SDS011;28680;45.642;13.756;2024-02-21T12:19:19;5.28;;;2.45;;
35646;SDS011;28680;45.642;13.756;2024-02-21T12:21:45;5.18;;;2.30;;
35646;SDS011;28680;45.642;13.756;2024-02-21T12:24:25;3.85;;;2.20;;
35646;SDS011;28680;45.642;13.756;2024-02-21T12:26:52;3.42;;;2.17;;
35646;SDS011;28680;45.642;13.756;2024-02-21T12:29:21;3.08;;;2.00;;
35646;SDS011;28680;45.642;13.756;2024-02-21T12:31:49;5.70;;;2.13;;
35646;SDS011;28680;45.642;13.756;2024-02-21T12:34:16;4.05;;;2.10;;
35646;SDS011;28680;45.642;13.756;2024-02-21T12:36:42;3.22;;;2.17;;
35646;SDS011;28680;45.642;13.756;2024-02-21T12:39:10;5.88;;;2.58;;
35646;SDS011;28680;45.642;13.756;2024-02-21T12:41:36;6.45;;;2.50;;
35646;SDS011;28680;45.642;13.756;2024-02-21T12:44:09;3.77;;;2.20;;
35646;SDS011;28680;45.642;13.756;2024-02-21T12:46:41;2.50;;;1.95;;
35646;SDS011;28680;45.642;13.756;2024-02-21T12:49:07;4.30;;;2.38;;
35646;SDS011;28680;45.642;13.756;2024-02-21T12:51:33;6.28;;;2.40;;
35646;SDS011;28680;45.642;13.756;2024-02-21T12:53:59;3.95;;;2.10;;
35646;SDS011;28680;45.642;13.756;2024-02-21T12:56:26;6.68;;;2.40;;
35646;SDS011;28680;45.642;13.756;2024-02-21T12:58:53;5.95;;;2.75;;
35646;SDS011;28680;45.642;13.756;2024-02-21T13:01:19;3.65;;;2.25;;
35646;SDS011;28680;45.642;13.756;2024-02-21T13:03:46;7.40;;;2.45;;
35646;SDS011;28680;45.642;13.756;2024-02-21T13:06:12;4.88;;;2.47;;
35646;SDS011;28680;45.642;13.756;2024-02-21T13:08:38;3.22;;;2.38;;
35646;SDS011;28680;45.642;13.756;2024-02-21T13:11:06;5.85;;;2.60;;
35646;SDS011;28680;45.642;13.756;2024-02-21T13:13:32;3.67;;;2.25;;
35646;SDS011;28680;45.642;13.756;2024-02-21T13:15:58;3.17;;;2.35;;
35646;SDS011;28680;45.642;13.756;2024-02-21T13:18:24;5.60;;;2.40;;
35646;SDS011;28680;45.642;13.756;2024-02-21T13:20:50;6.70;;;2.45;;
35646;SDS011;28680;45.642;13.756;2024-02-21T13:23:16;4.78;;;2.58;;
35646;SDS011;28680;45.642;13.756;2024-02-21T13:25:42;4.25;;;2.33;;
35646;SDS011;28680;45.642;13.756;2024-02-21T13:28:10;4.60;;;2.45;;
35646;SDS011;28680;45.642;13.756;2024-02-21T13:30:36;4.75;;;2.40;;
35646;SDS011;28680;45.642;13.756;2024-02-21T13:33:02;3.97;;;2.45;;
35646;SDS011;28680;45.642;13.756;2024-02-21T13:35:28;5.60;;;2.65;;
35646;SDS011;28680;45.642;13.756;2024-02-21T13:37:54;4.72;;;2.60;;
35646;SDS011;28680;45.642;13.756;2024-02-21T13:40:20;5.93;;;2.83;;
35646;SDS011;28680;45.642;13.756;2024-02-21T13:42:46;5.47;;;2.65;;
35646;SDS011;28680;45.642;13.756;2024-02-21T13:45:12;3.53;;;2.58;;
35646;SDS011;28680;45.642;13.756;2024-02-21T13:47:37;4.47;;;2.60;;
35646;SDS011;28680;45.642;13.756;2024-02-21T13:50:09;4.60;;;2.83;;
35646;SDS011;28680;45.642;13.756;2024-02-21T13:52:36;3.42;;;2.45;;
35646;SDS011;28680;45.642;13.756;2024-02-21T13:55:05;3.42;;;2.28;;
35646;SDS011;28680;45.642;13.756;2024-02-21T13:57:34;5.88;;;2.50;;
35646;SDS011;28680;45.642;13.756;2024-02-21T14:00:03;3.85;;;2.58;;
35646;SDS011;28680;45.642;13.756;2024-02-21T14:05:04;4.00;;;2.60;;
35646;SDS011;28680;45.642;13.756;2024-02-21T14:07:31;5.60;;;2.72;;
35646;SDS011;28680;45.642;13.756;2024-02-21T14:09:58;3.75;;;2.70;;
35646;SDS011;28680;45.642;13.756;2024-02-21T14:12:24;2.92;;;2.30;;
35646;SDS011;28680;45.642;13.756;2024-02-21T14:14:50;6.25;;;2.55;;
35646;SDS011;28680;45.642;13.756;2024-02-21T14:17:17;4.22;;;2.40;;
35646;SDS011;28680;45.642;13.756;2024-02-21T14:19:43;4.13;;;2.45;;
35646;SDS011;28680;45.642;13.756;2024-02-21T14:22:09;6.50;;;2.70;;
35646;SDS011;28680;45.642;13.756;2024-02-21T14:24:36;6.50;;;3.42;;
35646;SDS011;28680;45.642;13.756;2024-02-21T14:27:02;4.85;;;2.80;;
35646;SDS011;28680;45.642;13.756;2024-02-21T14:29:29;3.78;;;2.40;;
35646;SDS011;28680;45.642;13.756;2024-02-21T14:31:54;4.03;;;2.53;;
35646;SDS011;28680;45.642;13.756;2024-02-21T14:34:20;4.07;;;2.90;;
35646;SDS011;28680;45.642;13.756;2024-02-21T14:36:46;7.20;;;3.28;;
35646;SDS011;28680;45.642;13.756;2024-02-21T14:39:11;7.35;;;3.60;;
35646;SDS011;28680;45.642;13.756;2024-02-21T14:41:37;7.80;;;3.22;;
35646;SDS011;28680;45.642;13.756;2024-02-21T14:44:05;6.82;;;3.63;;
35646;SDS011;28680;45.642;13.756;2024-02-21T14:46:31;5.75;;;3.17;;
35646;SDS011;28680;45.642;13.756;2024-02-21T14:48:57;6.05;;;3.45;;
35646;SDS011;28680;45.642;13.756;2024-02-21T14:51:23;4.25;;;3.08;;
35646;SDS011;28680;45.642;13.756;2024-02-21T14:53:49;3.80;;;2.45;;
35646;SDS011;28680;45.642;13.756;2024-02-21T14:56:15;5.05;;;2.70;;